createdAt,value
2019-05-19T00:01:08.699Z,67.64
2019-05-19T00:03:40.489Z,67.54
2019-05-19T00:06:14.175Z,67.48
2019-05-19T00:08:45.893Z,67.61
2019-05-19T00:11:23.189Z,67.67
2019-05-19T00:13:56.453Z,67.86
2019-05-19T00:16:29.074Z,67.96
2019-05-19T00:19:02.314Z,67.60
2019-05-19T00:21:34.504Z,67.94
2019-05-19T00:24:06.242Z,68.69
2019-05-19T00:26:40.557Z,70.03
2019-05-19T00:29:13.266Z,70.32
2019-05-19T00:31:45.185Z,69.99
2019-05-19T00:34:16.910Z,70.03
2019-05-19T00:36:48.694Z,70.32
2019-05-19T00:39:20.585Z,69.92
2019-05-19T00:41:52.334Z,69.68
2019-05-19T00:44:25.687Z,69.21
2019-05-19T00:46:57.511Z,69.39
2019-05-19T00:49:40.614Z,69.74
2019-05-19T00:52:03.255Z,69.77
2019-05-19T00:54:35.526Z,69.18
2019-05-19T00:57:07.488Z,69.09
2019-05-19T00:59:39.246Z,69.30
2019-05-19T01:02:11.000Z,69.22
2019-05-19T01:04:42.717Z,68.78
2019-05-19T01:07:14.476Z,69.08
2019-05-19T01:09:46.228Z,70.53
2019-05-19T01:12:20.625Z,71.16
2019-05-19T01:14:54.040Z,72.04
2019-05-19T01:17:25.875Z,71.27
2019-05-19T01:19:57.584Z,70.95
2019-05-19T01:22:29.670Z,70.34
2019-05-19T01:25:02.145Z,69.85
2019-05-19T01:27:33.852Z,70.07
2019-05-19T01:30:06.136Z,70.89
2019-05-19T01:32:37.864Z,71.08
2019-05-19T01:35:09.574Z,71.09
2019-05-19T01:37:43.064Z,70.83
2019-05-19T01:40:16.315Z,70.81
2019-05-19T01:42:48.007Z,70.79
2019-05-19T01:45:19.751Z,70.24
2019-05-19T01:47:51.448Z,70.38
2019-05-19T01:50:24.735Z,70.77
2019-05-19T01:52:56.452Z,70.70
2019-05-19T01:55:28.435Z,71.03
2019-05-19T01:58:00.202Z,70.81
2019-05-19T02:00:32.880Z,70.67
2019-05-19T02:03:05.642Z,71.03
2019-05-19T02:05:37.390Z,71.50
2019-05-19T02:08:09.249Z,71.78
2019-05-19T02:10:41.027Z,72.19
2019-05-19T02:13:13.741Z,72.43
2019-05-19T02:15:47.391Z,72.59
2019-05-19T02:18:19.086Z,72.44
2019-05-19T02:20:50.881Z,72.35
2019-05-19T02:23:23.047Z,72.08
2019-05-19T02:25:56.448Z,72.13
2019-05-19T02:28:28.124Z,71.47
2019-05-19T02:30:59.907Z,71.50
2019-05-19T02:33:35.672Z,71.67
2019-05-19T02:36:05.988Z,72.10
2019-05-19T02:38:38.760Z,72.22
2019-05-19T02:41:10.562Z,72.12
2019-05-19T02:43:43.426Z,71.77
2019-05-19T02:46:15.152Z,72.04
2019-05-19T02:48:46.885Z,72.40
2019-05-19T02:51:18.657Z,72.49
2019-05-19T02:53:50.604Z,72.65
2019-05-19T02:56:24.203Z,72.47
2019-05-19T02:58:55.912Z,72.46
2019-05-19T03:01:28.094Z,71.96
2019-05-19T03:03:59.824Z,71.76
2019-05-19T03:06:32.583Z,71.83
2019-05-19T03:09:05.930Z,71.43
2019-05-19T03:11:37.687Z,71.71
2019-05-19T03:14:11.226Z,71.74
2019-05-19T03:16:44.460Z,71.93
2019-05-19T03:19:16.580Z,72.18
2019-05-19T03:21:48.299Z,72.43
2019-05-19T03:24:20.278Z,72.60
2019-05-19T03:26:51.990Z,72.69
2019-05-19T03:29:28.380Z,72.95
2019-05-19T03:32:12.425Z,72.98
2019-05-19T03:34:43.582Z,72.93
2019-05-19T03:37:15.652Z,73.18
2019-05-19T03:39:49.334Z,73.22
2019-05-19T03:42:21.071Z,73.29
2019-05-19T03:44:52.872Z,73.02
2019-05-19T03:47:24.622Z,73.00
2019-05-19T03:49:56.331Z,72.70
2019-05-19T03:52:28.072Z,72.42
2019-05-19T03:55:00.214Z,72.65
2019-05-19T03:57:32.875Z,73.21
2019-05-19T04:00:05.963Z,73.46
2019-05-19T04:02:38.093Z,73.56
2019-05-19T04:05:09.806Z,73.42
2019-05-19T04:07:41.544Z,73.45
2019-05-19T04:10:13.247Z,73.69
2019-05-19T04:12:46.567Z,73.84
2019-05-19T04:15:18.371Z,73.87
2019-05-19T04:17:50.090Z,73.98
2019-05-19T04:20:21.788Z,74.09
2019-05-19T04:22:53.874Z,74.16
2019-05-19T04:25:26.896Z,73.92
2019-05-19T04:27:58.621Z,73.52
2019-05-19T04:30:30.317Z,73.22
2019-05-19T04:33:02.029Z,73.29
2019-05-19T04:35:33.780Z,73.41
2019-05-19T04:38:05.624Z,73.59
2019-05-19T04:40:37.346Z,73.38
2019-05-19T04:43:09.057Z,73.54
2019-05-19T04:45:42.642Z,74.09
2019-05-19T04:48:14.472Z,74.46
2019-05-19T04:50:46.221Z,74.44
2019-05-19T04:53:17.937Z,74.54
2019-05-19T04:55:49.739Z,74.27
2019-05-19T04:58:21.511Z,74.17
2019-05-19T05:00:53.225Z,74.36
2019-05-19T05:03:24.929Z,74.30
2019-05-19T05:05:56.721Z,74.53
2019-05-19T05:08:30.582Z,74.26
2019-05-19T05:11:02.014Z,73.81
2019-05-19T05:13:33.687Z,73.37
2019-05-19T05:16:05.417Z,72.82
2019-05-19T05:18:37.162Z,72.76
2019-05-19T05:21:09.099Z,72.73
2019-05-19T05:23:40.832Z,72.79
2019-05-19T05:26:13.000Z,72.96
2019-05-19T05:28:44.717Z,72.78
2019-05-19T05:31:16.845Z,72.59
2019-05-19T05:33:48.806Z,72.70
2019-05-19T05:36:20.608Z,72.63
2019-05-19T05:38:55.259Z,72.70
2019-05-19T05:41:27.012Z,72.74
2019-05-19T05:43:59.101Z,72.72
2019-05-19T05:46:30.915Z,72.67
2019-05-19T05:49:03.272Z,72.62
2019-05-19T05:51:38.247Z,72.12
2019-05-19T05:54:10.022Z,72.05
2019-05-19T05:56:41.831Z,71.76
2019-05-19T05:59:13.538Z,70.13
2019-05-19T06:01:45.278Z,65.24
2019-05-19T06:04:17.010Z,60.99
2019-05-19T06:06:48.796Z,59.07
2019-05-19T06:09:20.606Z,57.38
2019-05-19T06:11:52.362Z,56.78
2019-05-19T06:14:24.127Z,54.23
2019-05-19T06:16:55.863Z,52.11
2019-05-19T06:19:27.792Z,51.10
2019-05-19T06:21:59.504Z,50.44
2019-05-19T06:24:31.261Z,50.72
2019-05-19T06:27:07.376Z,49.46
2019-05-19T06:29:42.533Z,49.13
2019-05-19T06:32:31.515Z,47.69
2019-05-19T06:35:03.313Z,47.23
2019-05-19T06:37:35.252Z,47.04
2019-05-19T06:40:07.025Z,46.14
2019-05-19T06:42:39.269Z,45.19
2019-05-19T06:45:10.996Z,44.97
2019-05-19T06:47:45.453Z,45.39
2019-05-19T06:50:17.302Z,43.98
2019-05-19T06:52:49.020Z,43.07
2019-05-19T06:55:21.538Z,43.10
2019-05-19T06:57:53.283Z,42.69
2019-05-19T07:00:25.051Z,42.04
2019-05-19T07:02:58.463Z,41.14
2019-05-19T07:05:30.270Z,40.21
2019-05-19T07:08:01.995Z,40.18
2019-05-19T07:10:33.760Z,38.98
2019-05-19T07:13:06.493Z,38.73
2019-05-19T07:15:38.365Z,39.03
2019-05-19T07:18:10.083Z,38.17
2019-05-19T07:20:41.821Z,37.84
2019-05-19T07:23:27.319Z,37.91
2019-05-19T07:25:49.302Z,38.45
2019-05-19T07:28:21.172Z,37.72
2019-05-19T07:30:52.937Z,37.54
2019-05-19T07:33:24.661Z,38.05
2019-05-19T07:35:57.466Z,37.97
2019-05-19T07:38:29.474Z,37.11
2019-05-19T07:41:03.261Z,39.05
2019-05-19T07:43:35.057Z,37.69
2019-05-19T07:46:06.854Z,37.05
2019-05-19T07:48:39.022Z,36.92
2019-05-19T07:51:12.298Z,37.02
2019-05-19T07:53:44.168Z,35.12
2019-05-19T07:56:19.295Z,35.37
2019-05-19T07:58:54.479Z,34.13
2019-05-19T08:01:26.271Z,33.94
2019-05-19T08:03:57.991Z,33.92
2019-05-19T08:06:29.714Z,34.74
2019-05-19T08:09:02.007Z,34.20
2019-05-19T08:11:35.010Z,37.20
2019-05-19T08:14:07.683Z,37.80
2019-05-19T08:16:39.595Z,35.10
2019-05-19T08:19:15.089Z,33.12
2019-05-19T08:21:47.275Z,33.41
2019-05-19T08:24:20.912Z,33.65
2019-05-19T08:26:52.982Z,32.15
2019-05-19T08:29:25.828Z,32.36
2019-05-19T08:32:08.168Z,31.58
2019-05-19T08:34:50.912Z,33.64
2019-05-19T08:37:25.666Z,31.53
2019-05-19T08:40:04.526Z,30.60
2019-05-19T08:42:38.160Z,30.20
2019-05-19T08:45:09.968Z,33.56
2019-05-19T08:47:42.070Z,40.03
2019-05-19T08:50:13.953Z,34.52
2019-05-19T08:52:46.122Z,32.68
2019-05-19T08:55:17.821Z,32.26
2019-05-19T08:57:49.648Z,35.97
2019-05-19T09:00:21.376Z,34.75
2019-05-19T09:02:53.129Z,36.87
2019-05-19T09:05:24.858Z,32.59
2019-05-19T09:07:56.589Z,31.71
2019-05-19T09:10:28.387Z,30.34
2019-05-19T09:13:00.125Z,29.79
2019-05-19T09:15:34.300Z,28.70
2019-05-19T09:18:07.606Z,29.10
2019-05-19T09:20:39.675Z,34.05
2019-05-19T09:23:11.455Z,33.69
2019-05-19T09:25:43.196Z,34.58
2019-05-19T09:28:15.050Z,30.93
2019-05-19T09:30:46.884Z,28.47
2019-05-19T09:33:18.852Z,28.05
2019-05-19T09:35:50.944Z,30.36
2019-05-19T09:38:22.724Z,27.99
2019-05-19T09:54:44.040Z,34.23
2019-05-19T09:57:07.735Z,33.21
2019-05-19T09:59:39.576Z,30.76
2019-05-19T10:02:11.298Z,29.35
2019-05-19T10:04:43.505Z,29.98
2019-05-19T10:07:15.357Z,35.10
2019-05-19T10:10:04.446Z,31.20
2019-05-19T10:12:36.159Z,33.48
2019-05-19T10:15:08.115Z,31.35
2019-05-19T10:17:39.894Z,31.91
2019-05-19T10:22:56.883Z,32.67
2019-05-19T10:25:30.224Z,34.90
2019-05-19T10:28:02.144Z,34.21
2019-05-19T10:30:34.048Z,36.55
2019-05-19T10:33:07.549Z,35.10
2019-05-19T10:35:42.513Z,35.99
2019-05-19T10:38:17.587Z,30.69
2019-05-19T10:40:48.571Z,28.64
2019-05-19T10:43:22.392Z,28.98
2019-05-19T10:46:05.771Z,30.48
2019-05-19T10:48:36.983Z,27.55
2019-05-19T10:51:09.161Z,30.97
2019-05-19T10:53:42.004Z,32.49
2019-05-19T10:56:13.686Z,30.93
2019-05-19T10:58:45.380Z,27.99
2019-05-19T11:01:17.072Z,29.95
2019-05-19T11:03:50.408Z,29.38
2019-05-19T11:06:23.911Z,26.97
2019-05-19T11:08:56.605Z,27.72
2019-05-19T11:11:28.740Z,31.79
2019-05-19T11:14:00.849Z,34.09
2019-05-19T11:16:33.795Z,33.72
2019-05-19T11:19:06.834Z,31.85
2019-05-19T11:21:38.651Z,30.36
2019-05-19T11:24:10.383Z,28.58
2019-05-19T11:26:42.710Z,28.12
2019-05-19T11:29:14.778Z,28.93
2019-05-19T11:31:46.790Z,31.25
2019-05-19T11:34:18.902Z,29.43
2019-05-19T11:36:51.293Z,31.44
2019-05-19T11:39:23.340Z,30.96
2019-05-19T11:41:55.390Z,31.32
2019-05-19T11:44:31.393Z,31.07
2019-05-19T11:47:04.584Z,33.39
2019-05-19T11:49:36.649Z,33.45
2019-05-19T11:52:09.097Z,32.95
2019-05-19T11:54:41.217Z,33.17
2019-05-19T11:57:12.913Z,32.41
2019-05-19T11:59:44.731Z,31.51
2019-05-19T12:02:16.428Z,30.64
2019-05-19T12:04:48.152Z,32.17
2019-05-19T12:07:19.894Z,32.32
2019-05-19T12:09:53.219Z,32.50
2019-05-19T12:12:25.053Z,31.72
2019-05-19T12:14:58.453Z,31.96
2019-05-19T12:17:31.369Z,32.50
2019-05-19T12:20:03.178Z,32.69
2019-05-19T12:22:34.885Z,32.84
2019-05-19T12:25:08.055Z,32.32
2019-05-19T12:27:39.845Z,32.03
2019-05-19T12:30:17.657Z,32.11
2019-05-19T12:32:49.664Z,31.97
2019-05-19T12:35:24.796Z,31.79
2019-05-19T12:37:56.591Z,30.68
2019-05-19T12:40:28.322Z,31.08
2019-05-19T12:43:00.476Z,31.33
2019-05-19T12:45:32.940Z,30.43
2019-05-19T12:48:06.636Z,31.93
2019-05-19T12:50:38.342Z,30.49
2019-05-19T12:53:10.078Z,31.54
2019-05-19T12:55:41.847Z,31.89
2019-05-19T12:58:13.621Z,30.68
2019-05-19T13:00:46.309Z,30.41
2019-05-19T13:03:19.686Z,31.38
2019-05-19T13:05:54.254Z,31.97
2019-05-19T13:08:26.099Z,31.00
2019-05-19T13:10:57.796Z,30.19
2019-05-19T13:13:29.669Z,29.84
2019-05-19T13:16:04.701Z,28.00
2019-05-19T13:18:36.390Z,30.13
2019-05-19T13:21:08.169Z,32.55
2019-05-19T13:23:40.016Z,33.72
2019-05-19T13:26:11.827Z,36.42
2019-05-19T13:28:43.627Z,37.39
2019-05-19T13:31:15.374Z,38.01
2019-05-19T13:33:49.909Z,38.94
2019-05-19T13:36:21.656Z,37.06
2019-05-19T13:38:55.003Z,38.64
2019-05-19T13:41:26.825Z,38.40
2019-05-19T13:43:59.703Z,39.75
2019-05-19T13:46:33.636Z,38.71
2019-05-19T13:49:07.027Z,38.46
2019-05-19T13:51:38.820Z,38.36
2019-05-19T13:54:10.780Z,38.90
2019-05-19T13:56:42.790Z,39.32
2019-05-19T13:59:14.543Z,38.68
2019-05-19T14:01:46.292Z,38.97
2019-05-19T14:04:18.178Z,38.22
2019-05-19T14:06:50.958Z,38.59
2019-05-19T14:09:22.734Z,37.62
2019-05-19T14:11:54.724Z,37.05
2019-05-19T14:14:26.509Z,38.36
2019-05-19T14:16:58.271Z,38.55
2019-05-19T14:19:30.092Z,38.11
2019-05-19T14:22:03.938Z,38.07
2019-05-19T14:24:35.694Z,39.10
2019-05-19T14:27:07.464Z,38.93
2019-05-19T14:43:11.418Z,37.05
2019-05-19T14:45:44.775Z,38.06
2019-05-19T14:48:16.585Z,38.13
2019-05-19T14:50:48.590Z,38.00
2019-05-19T14:53:20.312Z,37.29
2019-05-19T14:55:52.054Z,38.62
2019-05-19T14:58:24.293Z,38.63
2019-05-19T15:00:56.351Z,37.93
2019-05-19T15:03:28.206Z,38.58
2019-05-19T15:06:00.454Z,38.89
2019-05-19T15:08:32.947Z,37.81
2019-05-19T15:11:04.690Z,38.98
2019-05-19T15:13:36.461Z,38.06
2019-05-19T15:16:08.654Z,37.90
2019-05-19T15:18:40.443Z,38.39
2019-05-19T15:21:12.225Z,38.31
2019-05-19T15:23:44.155Z,39.25
2019-05-19T15:26:17.511Z,39.28
2019-05-19T15:28:49.352Z,38.91
2019-05-19T15:31:21.089Z,38.68
2019-05-19T15:33:52.815Z,38.83
2019-05-19T15:36:26.180Z,38.59
2019-05-19T15:38:57.953Z,38.47
2019-05-19T15:41:29.733Z,37.29
2019-05-19T15:44:01.501Z,37.19
2019-05-19T15:46:33.619Z,37.32
2019-05-19T15:49:06.238Z,38.07
2019-05-19T15:51:39.763Z,38.20
2019-05-19T15:54:11.542Z,37.70
2019-05-19T15:56:43.339Z,39.04
2019-05-19T15:59:15.099Z,39.61
2019-05-19T16:01:48.324Z,39.18
2019-05-19T16:04:20.323Z,38.47
2019-05-19T16:06:52.122Z,38.64
2019-05-19T16:09:23.961Z,39.38
2019-05-19T16:11:57.319Z,38.47
2019-05-19T16:14:29.210Z,39.52
2019-05-19T16:17:01.936Z,40.69
2019-05-19T16:19:33.763Z,40.85
2019-05-19T16:22:05.756Z,40.26
2019-05-19T16:24:38.128Z,40.36
2019-05-19T16:27:12.937Z,39.95
2019-05-19T16:29:48.199Z,39.76
2019-05-19T16:32:19.888Z,39.25
2019-05-19T16:34:51.851Z,39.67
2019-05-19T16:37:23.620Z,40.11
2019-05-19T16:39:55.371Z,40.21
2019-05-19T16:42:28.054Z,40.73
2019-05-19T16:45:00.179Z,41.55
2019-05-19T16:47:35.860Z,40.99
2019-05-19T16:50:08.193Z,41.04
2019-05-19T16:52:39.935Z,40.82
2019-05-19T16:55:25.816Z,40.80
2019-05-19T16:57:57.518Z,41.01
2019-05-19T17:00:30.087Z,41.59
2019-05-19T17:03:03.437Z,40.87
2019-05-19T17:05:35.230Z,40.96
2019-05-19T17:08:11.236Z,41.91
2019-05-19T17:10:43.123Z,41.75
2019-05-19T17:13:14.943Z,43.29
2019-05-19T17:15:46.708Z,41.24
2019-05-19T17:18:18.529Z,41.51
2019-05-19T17:20:51.691Z,42.53
2019-05-19T17:23:23.648Z,43.06
2019-05-19T17:25:55.438Z,42.17
2019-05-19T17:28:27.183Z,42.46
2019-05-19T17:30:58.995Z,41.65
2019-05-19T17:33:30.999Z,41.79
2019-05-19T17:36:02.821Z,42.86
2019-05-19T17:38:34.612Z,43.85
2019-05-19T17:41:08.070Z,44.55
2019-05-19T17:43:39.969Z,43.20
2019-05-19T17:46:12.055Z,43.26
2019-05-19T17:48:43.844Z,44.22
2019-05-19T17:51:15.627Z,44.46
2019-05-19T17:53:47.403Z,45.31
2019-05-19T17:56:19.362Z,45.27
2019-05-19T17:58:52.863Z,44.92
2019-05-19T18:01:24.718Z,44.09
2019-05-19T18:03:59.835Z,44.27
2019-05-19T18:06:33.324Z,45.12
2019-05-19T18:09:06.863Z,44.34
2019-05-19T18:11:38.739Z,44.42
2019-05-19T18:14:10.838Z,45.15
2019-05-19T18:16:42.822Z,44.96
2019-05-19T18:19:14.937Z,44.31
2019-05-19T18:21:46.955Z,44.18
2019-05-19T18:24:19.802Z,45.42
2019-05-19T18:26:52.286Z,45.41
2019-05-19T18:29:31.501Z,45.56
2019-05-19T18:31:58.293Z,45.46
2019-05-19T18:34:32.150Z,46.24
2019-05-19T18:37:04.109Z,46.34
2019-05-19T18:39:38.979Z,46.38
2019-05-19T18:42:10.835Z,45.98
2019-05-19T18:44:42.781Z,46.25
2019-05-19T18:47:16.559Z,46.33
2019-05-19T18:49:48.418Z,47.12
2019-05-19T18:52:20.183Z,48.03
2019-05-19T18:54:52.102Z,48.54
2019-05-19T18:57:23.941Z,48.15
2019-05-19T18:59:55.951Z,48.07
2019-05-19T19:02:28.145Z,48.86
2019-05-19T19:04:59.938Z,50.08
2019-05-19T19:07:53.118Z,49.71
2019-05-19T19:10:25.037Z,49.92
2019-05-19T19:12:57.156Z,50.95
2019-05-19T19:15:28.944Z,50.51
2019-05-19T19:18:02.288Z,50.43
2019-05-19T19:20:34.469Z,50.36
2019-05-19T19:23:06.783Z,50.53
2019-05-19T19:25:38.747Z,50.92
2019-05-19T19:28:10.485Z,51.83
2019-05-19T19:30:42.516Z,51.96
2019-05-19T19:33:14.262Z,52.58
2019-05-19T19:35:46.034Z,51.72
2019-05-19T19:38:17.784Z,51.56
2019-05-19T19:40:54.108Z,51.85
2019-05-19T19:43:26.278Z,52.29
2019-05-19T19:45:59.638Z,52.43
2019-05-19T19:48:32.442Z,52.72
2019-05-19T19:51:06.095Z,52.98
2019-05-19T19:53:37.796Z,53.08
2019-05-19T19:56:09.529Z,53.00
2019-05-19T19:58:41.267Z,53.04
2019-05-19T20:01:12.991Z,53.45
2019-05-19T20:03:44.945Z,53.74
2019-05-19T20:06:17.374Z,54.51
2019-05-19T20:08:49.167Z,55.10
2019-05-19T20:11:20.905Z,55.71
2019-05-19T20:13:52.801Z,56.11
2019-05-19T20:16:25.019Z,56.23
2019-05-19T20:18:56.746Z,56.40
2019-05-19T20:21:28.545Z,56.47
2019-05-19T20:24:02.999Z,56.43
2019-05-19T20:26:36.366Z,56.31
2019-05-19T20:29:08.367Z,56.32
2019-05-19T20:31:40.149Z,56.14
2019-05-19T20:34:12.022Z,56.35
2019-05-19T20:36:43.882Z,56.68
2019-05-19T20:39:16.425Z,57.13
2019-05-19T20:41:48.296Z,57.23
2019-05-19T20:44:20.034Z,57.44
2019-05-19T20:46:51.932Z,57.83
2019-05-19T20:49:25.340Z,57.91
2019-05-19T20:51:57.283Z,58.07
2019-05-19T20:54:31.092Z,58.52
2019-05-19T20:57:03.227Z,58.84
2019-05-19T20:59:36.054Z,58.97
2019-05-19T21:02:07.787Z,59.57
2019-05-19T21:04:39.700Z,60.51
2019-05-19T21:07:11.489Z,61.31
2019-05-19T21:09:43.280Z,61.68
2019-05-19T21:12:16.101Z,61.53
2019-05-19T21:14:47.978Z,61.68
2019-05-19T21:17:20.212Z,61.31
2019-05-19T21:19:55.306Z,61.26
2019-05-19T21:22:27.178Z,62.55
2019-05-19T21:24:58.955Z,62.79
2019-05-19T21:27:30.703Z,62.92
2019-05-19T21:30:02.586Z,62.71
2019-05-19T21:32:36.535Z,62.54
2019-05-19T21:35:08.372Z,62.79
2019-05-19T21:37:45.193Z,63.07
2019-05-19T21:40:17.919Z,62.92
2019-05-19T21:42:53.645Z,62.91
2019-05-19T21:45:25.743Z,63.26
2019-05-19T21:47:57.706Z,63.40
2019-05-19T21:50:29.556Z,63.33
2019-05-19T21:53:06.397Z,63.64
2019-05-19T21:55:36.832Z,63.55
2019-05-19T21:58:09.556Z,63.36
2019-05-19T22:00:43.265Z,63.37
2019-05-19T22:03:15.169Z,63.39
2019-05-19T22:05:53.193Z,63.47
2019-05-19T22:08:22.498Z,63.74
2019-05-19T22:10:54.362Z,63.90
2019-05-19T22:13:27.790Z,63.92
2019-05-19T22:16:12.479Z,63.99
2019-05-19T22:18:35.671Z,64.05
2019-05-19T22:21:07.868Z,64.69
2019-05-19T22:23:39.774Z,64.94
2019-05-19T22:26:11.631Z,65.08
2019-05-19T22:28:43.817Z,64.89
2019-05-19T22:31:15.747Z,64.67
2019-05-19T22:33:47.637Z,65.17
2019-05-19T22:36:19.550Z,65.32
2019-05-19T22:38:51.393Z,65.45
2019-05-19T22:41:23.265Z,65.37
2019-05-19T22:43:55.149Z,65.43
2019-05-19T22:46:27.291Z,65.71
2019-05-19T22:48:59.244Z,65.65
2019-05-19T22:51:32.724Z,65.61
2019-05-19T22:54:06.743Z,65.54
2019-05-19T22:56:38.662Z,65.83
2019-05-19T22:59:19.249Z,66.33
2019-05-19T23:01:51.819Z,66.64
2019-05-19T23:04:17.987Z,66.57
2019-05-19T23:06:49.598Z,66.41
2019-05-19T23:09:21.764Z,66.03
2019-05-19T23:11:53.605Z,65.75
2019-05-19T23:14:27.998Z,65.80
2019-05-19T23:17:00.478Z,65.77
2019-05-19T23:19:32.721Z,67.00
2019-05-19T23:22:04.523Z,68.02
2019-05-19T23:24:38.163Z,68.09
2019-05-19T23:27:09.946Z,67.71
2019-05-19T23:29:41.774Z,67.43
2019-05-19T23:32:15.266Z,67.40
2019-05-19T23:34:47.313Z,67.58
2019-05-19T23:37:19.159Z,67.55
2019-05-19T23:39:54.240Z,67.38
2019-05-19T23:42:26.221Z,67.36
2019-05-19T23:44:58.133Z,67.66
2019-05-19T23:47:29.873Z,67.43
2019-05-19T23:50:01.695Z,69.37
2019-05-19T23:52:33.522Z,69.29
2019-05-19T23:55:07.255Z,69.56
2019-05-19T23:57:40.109Z,69.03
